createdAt,value
2019-02-28T00:00:44.178Z,21.21
2019-02-28T00:01:46.433Z,21.23
2019-02-28T00:02:44.182Z,21.17
2019-02-28T00:03:44.189Z,21.29
2019-02-28T00:04:44.197Z,21.29
2019-02-28T00:05:44.199Z,21.17
2019-02-28T00:06:45.141Z,21.32
2019-02-28T00:07:44.210Z,21.27
2019-02-28T00:08:44.215Z,21.29
2019-02-28T00:09:44.221Z,21.26
2019-02-28T00:10:44.224Z,21.24
2019-02-28T00:11:44.231Z,21.34
2019-02-28T00:12:45.216Z,21.30
2019-02-28T00:13:44.239Z,21.26
2019-02-28T00:14:45.630Z,21.16
2019-02-28T00:15:44.250Z,21.14
2019-02-28T00:16:44.260Z,21.21
2019-02-28T00:17:44.261Z,21.21
2019-02-28T00:18:44.267Z,21.24
2019-02-28T00:19:44.273Z,21.27
2019-02-28T00:20:44.278Z,21.23
2019-02-28T00:21:44.287Z,21.26
2019-02-28T00:22:48.355Z,21.26
2019-02-28T00:23:44.294Z,21.21
2019-02-28T00:24:44.299Z,21.27
2019-02-28T00:25:44.304Z,21.23
2019-02-28T00:26:47.654Z,21.21
2019-02-28T00:27:44.315Z,21.24
2019-02-28T00:28:44.319Z,21.24
2019-02-28T00:29:44.325Z,21.14
2019-02-28T00:30:44.331Z,21.29
2019-02-28T00:31:49.539Z,21.27
2019-02-28T00:32:44.341Z,21.19
2019-02-28T00:33:44.346Z,21.26
2019-02-28T00:34:44.353Z,21.19
2019-02-28T00:35:45.426Z,21.23
2019-02-28T00:36:44.361Z,21.29
2019-02-28T00:37:44.369Z,21.24
2019-02-28T00:38:44.371Z,21.21
2019-02-28T00:39:44.385Z,21.21
2019-02-28T00:40:44.382Z,21.26
2019-02-28T00:41:44.673Z,21.17
2019-02-28T00:42:44.393Z,21.14
2019-02-28T00:43:44.399Z,21.20
2019-02-28T00:44:44.405Z,21.23
2019-02-28T00:45:44.413Z,21.24
2019-02-28T00:46:45.380Z,21.21
2019-02-28T00:47:47.495Z,21.32
2019-02-28T00:48:44.424Z,21.17
2019-02-28T00:49:44.432Z,21.30
2019-02-28T00:50:44.434Z,21.21
2019-02-28T00:51:44.440Z,21.27
2019-02-28T00:52:44.445Z,21.34
2019-02-28T00:53:44.451Z,21.27
2019-02-28T00:54:44.551Z,21.34
2019-02-28T00:55:45.876Z,21.29
2019-02-28T00:56:44.465Z,21.27
2019-02-28T00:57:44.476Z,21.26
2019-02-28T00:58:44.477Z,21.29
2019-02-28T00:59:44.514Z,21.32
2019-02-28T01:00:44.512Z,21.27
2019-02-28T01:01:45.880Z,21.20
2019-02-28T01:02:44.501Z,21.26
2019-02-28T01:03:44.503Z,21.16
2019-02-28T01:04:44.508Z,21.30
2019-02-28T01:05:44.515Z,21.26
2019-02-28T01:06:44.519Z,21.24
2019-02-28T01:07:48.145Z,21.29
2019-02-28T01:08:44.528Z,21.35
2019-02-28T01:09:44.534Z,21.29
2019-02-28T01:10:44.539Z,21.16
2019-02-28T01:11:45.558Z,21.20
2019-02-28T01:12:44.552Z,21.23
2019-02-28T01:13:44.555Z,21.23
2019-02-28T01:14:44.566Z,21.29
2019-02-28T01:15:45.657Z,21.27
2019-02-28T01:16:44.572Z,21.23
2019-02-28T01:17:44.576Z,21.20
2019-02-28T01:18:44.583Z,21.21
2019-02-28T01:19:44.586Z,21.26
2019-02-28T01:20:49.933Z,21.23
2019-02-28T01:21:44.597Z,21.27
2019-02-28T01:22:44.605Z,21.19
2019-02-28T01:23:44.613Z,21.19
2019-02-28T01:24:44.611Z,21.23
2019-02-28T01:25:44.635Z,21.17
2019-02-28T01:26:46.623Z,21.17
2019-02-28T01:27:44.629Z,21.27
2019-02-28T01:28:44.663Z,21.20
2019-02-28T01:29:44.639Z,21.16
2019-02-28T01:30:44.645Z,21.23
2019-02-28T01:31:44.652Z,21.26
2019-02-28T01:32:49.758Z,21.16
2019-02-28T01:33:44.660Z,21.27
2019-02-28T01:34:44.666Z,21.32
2019-02-28T01:35:44.671Z,21.23
2019-02-28T01:36:48.376Z,21.23
2019-02-28T01:37:44.681Z,21.26
2019-02-28T01:38:44.686Z,21.27
2019-02-28T01:39:44.694Z,21.13
2019-02-28T01:40:44.699Z,21.24
2019-02-28T01:41:45.150Z,21.23
2019-02-28T01:42:44.708Z,21.27
2019-02-28T01:43:44.712Z,21.20
2019-02-28T01:44:44.721Z,21.13
2019-02-28T01:45:44.724Z,21.26
2019-02-28T01:46:44.734Z,21.21
2019-02-28T01:47:44.734Z,21.13
2019-02-28T01:48:44.739Z,21.32
2019-02-28T01:49:44.743Z,21.20
2019-02-28T01:50:44.751Z,21.20
2019-02-28T01:51:44.755Z,21.09
2019-02-28T01:52:46.139Z,21.21
2019-02-28T01:53:44.767Z,21.23
2019-02-28T01:54:44.770Z,21.23
2019-02-28T01:55:44.775Z,21.19
2019-02-28T01:56:44.781Z,21.23
2019-02-28T01:57:44.786Z,21.11
2019-02-28T01:58:47.667Z,21.24
2019-02-28T01:59:44.797Z,21.21
2019-02-28T02:00:44.806Z,21.19
2019-02-28T02:01:44.808Z,21.29
2019-02-28T02:02:44.813Z,21.26
2019-02-28T02:03:44.821Z,21.13
2019-02-28T02:04:45.793Z,21.21
2019-02-28T02:05:44.827Z,21.29
2019-02-28T02:06:44.833Z,21.24
2019-02-28T02:07:44.839Z,21.26
2019-02-28T02:08:44.846Z,21.24
2019-02-28T02:09:46.302Z,21.24
2019-02-28T02:10:44.854Z,21.13
2019-02-28T02:11:44.860Z,21.17
2019-02-28T02:12:44.878Z,21.16
2019-02-28T02:13:44.871Z,21.11
2019-02-28T02:14:45.611Z,21.17
2019-02-28T02:15:44.880Z,21.16
2019-02-28T02:16:44.885Z,21.13
2019-02-28T02:17:44.891Z,21.13
2019-02-28T02:18:44.897Z,21.20
2019-02-28T02:19:44.903Z,21.21
2019-02-28T02:20:44.906Z,21.17
2019-02-28T02:21:44.912Z,21.20
2019-02-28T02:22:45.466Z,21.21
2019-02-28T02:23:44.926Z,21.21
2019-02-28T02:24:44.929Z,21.16
2019-02-28T02:25:44.932Z,21.13
2019-02-28T02:26:45.838Z,21.14
2019-02-28T02:27:44.947Z,21.11
2019-02-28T02:28:44.947Z,21.16
2019-02-28T02:29:44.952Z,21.14
2019-02-28T02:30:50.490Z,21.24
2019-02-28T02:31:44.996Z,21.09
2019-02-28T02:32:45.010Z,21.09
2019-02-28T02:33:50.873Z,21.14
2019-02-28T02:34:45.012Z,21.14
2019-02-28T02:35:44.989Z,21.19
2019-02-28T02:36:44.991Z,21.09
2019-02-28T02:37:44.997Z,21.17
2019-02-28T02:38:45.003Z,21.21
2019-02-28T02:39:45.007Z,21.23
2019-02-28T02:40:45.011Z,21.17
2019-02-28T02:41:45.018Z,21.17
2019-02-28T02:42:48.914Z,21.20
2019-02-28T02:43:45.027Z,21.09
2019-02-28T02:44:45.094Z,21.14
2019-02-28T02:45:45.040Z,21.23
2019-02-28T02:46:45.042Z,21.14
2019-02-28T02:47:45.050Z,21.20
2019-02-28T02:48:45.052Z,21.16
2019-02-28T02:49:45.061Z,21.16
2019-02-28T02:50:45.070Z,21.16
2019-02-28T02:51:49.532Z,21.17
2019-02-28T02:52:45.136Z,21.11
2019-02-28T02:53:45.081Z,21.11
2019-02-28T02:54:45.084Z,21.11
2019-02-28T02:55:45.107Z,21.06
2019-02-28T02:56:45.093Z,21.04
2019-02-28T02:57:50.572Z,21.16
2019-02-28T02:58:45.105Z,21.17
2019-02-28T02:59:45.111Z,21.06
2019-02-28T03:00:49.299Z,21.14
2019-02-28T03:01:45.122Z,21.11
2019-02-28T03:02:45.127Z,21.09
2019-02-28T03:03:45.137Z,21.11
2019-02-28T03:04:45.137Z,21.08
2019-02-28T03:05:45.141Z,21.16
2019-02-28T03:06:46.095Z,21.06
2019-02-28T03:07:45.153Z,21.11
2019-02-28T03:08:45.170Z,21.17
2019-02-28T03:09:45.163Z,21.09
2019-02-28T03:10:45.167Z,21.08
2019-02-28T03:11:45.187Z,21.08
2019-02-28T03:12:45.179Z,21.14
2019-02-28T03:13:45.183Z,21.06
2019-02-28T03:14:48.758Z,21.17
2019-02-28T03:15:45.194Z,21.13
2019-02-28T03:16:45.203Z,21.06
2019-02-28T03:17:47.490Z,21.09
2019-02-28T03:18:45.210Z,21.11
2019-02-28T03:19:45.241Z,21.11
2019-02-28T03:20:45.220Z,21.13
2019-02-28T03:21:51.490Z,21.17
2019-02-28T03:22:45.229Z,21.14
2019-02-28T03:23:45.235Z,21.19
2019-02-28T03:24:50.686Z,21.17
2019-02-28T03:25:45.250Z,21.11
2019-02-28T03:26:45.261Z,21.14
2019-02-28T03:27:45.309Z,21.17
2019-02-28T03:28:45.260Z,21.09
2019-02-28T03:29:45.271Z,21.17
2019-02-28T03:30:45.272Z,21.11
2019-02-28T03:31:55.114Z,21.17
2019-02-28T03:32:45.283Z,21.19
2019-02-28T03:33:45.289Z,21.19
2019-02-28T03:34:55.527Z,21.16
2019-02-28T03:35:45.319Z,21.14
2019-02-28T03:36:55.005Z,21.16
2019-02-28T03:37:45.345Z,21.11
2019-02-28T03:38:49.847Z,21.16
2019-02-28T03:39:45.319Z,21.11
2019-02-28T03:40:45.322Z,21.11
2019-02-28T03:41:49.064Z,21.14
2019-02-28T03:42:45.334Z,21.16
2019-02-28T03:43:45.340Z,21.14
2019-02-28T03:44:45.343Z,21.14
2019-02-28T03:45:45.352Z,21.24
2019-02-28T03:46:46.733Z,21.17
2019-02-28T03:47:45.361Z,21.09
2019-02-28T03:48:45.419Z,21.16
2019-02-28T03:49:49.867Z,21.19
2019-02-28T03:50:45.376Z,21.13
2019-02-28T03:51:45.383Z,21.13
2019-02-28T03:52:45.386Z,21.13
2019-02-28T03:53:45.397Z,21.09
2019-02-28T03:54:45.398Z,21.06
2019-02-28T03:55:45.401Z,21.19
2019-02-28T03:56:51.054Z,21.20
2019-02-28T03:57:45.412Z,21.19
2019-02-28T03:58:45.426Z,21.17
2019-02-28T03:59:45.421Z,21.11
2019-02-28T04:00:45.429Z,21.19
2019-02-28T04:01:46.531Z,21.21
2019-02-28T04:02:45.436Z,21.13
2019-02-28T04:03:45.444Z,21.17
2019-02-28T04:04:49.958Z,21.14
2019-02-28T04:05:45.458Z,21.14
2019-02-28T04:06:45.480Z,21.19
2019-02-28T04:07:52.883Z,21.13
2019-02-28T04:08:45.472Z,21.13
2019-02-28T04:09:45.490Z,21.14
2019-02-28T04:10:45.481Z,21.16
2019-02-28T04:11:45.483Z,21.16
2019-02-28T04:12:47.040Z,21.16
2019-02-28T04:13:45.498Z,21.17
2019-02-28T04:14:45.502Z,21.09
2019-02-28T04:16:01.435Z,21.21
2019-02-28T04:16:52.719Z,21.19
2019-02-28T04:17:45.568Z,21.19
2019-02-28T04:18:46.725Z,21.19
2019-02-28T04:19:45.525Z,21.19
2019-02-28T04:20:45.533Z,21.14
2019-02-28T04:21:46.653Z,21.09
2019-02-28T04:22:45.550Z,21.14
2019-02-28T04:23:45.546Z,21.16
2019-02-28T04:24:47.460Z,21.11
2019-02-28T04:25:45.557Z,21.14
2019-02-28T04:26:45.562Z,21.04
2019-02-28T04:27:45.579Z,21.13
2019-02-28T04:28:45.571Z,21.09
2019-02-28T04:29:45.577Z,21.11
2019-02-28T04:30:45.603Z,21.09
2019-02-28T04:31:45.588Z,21.17
2019-02-28T04:32:45.592Z,21.05
2019-02-28T04:33:45.600Z,21.19
2019-02-28T04:34:49.027Z,21.05
2019-02-28T04:35:45.612Z,21.09
2019-02-28T04:36:45.612Z,21.16
2019-02-28T04:37:47.294Z,21.13
2019-02-28T04:38:45.624Z,21.09
2019-02-28T04:39:45.628Z,21.11
2019-02-28T04:40:45.650Z,21.04
2019-02-28T04:41:45.639Z,21.09
2019-02-28T04:42:45.644Z,21.08
2019-02-28T04:43:45.654Z,21.16
2019-02-28T04:44:45.656Z,21.17
2019-02-28T04:45:45.665Z,21.08
2019-02-28T04:46:45.666Z,21.11
2019-02-28T04:47:45.697Z,21.19
2019-02-28T04:48:48.448Z,21.14
2019-02-28T04:49:45.680Z,21.17
2019-02-28T04:50:45.686Z,21.14
2019-02-28T04:51:45.691Z,21.14
2019-02-28T04:52:48.012Z,21.17
2019-02-28T04:53:45.701Z,21.13
2019-02-28T04:54:45.704Z,21.16
2019-02-28T04:55:45.714Z,21.14
2019-02-28T04:56:46.538Z,21.17
2019-02-28T04:57:45.722Z,21.20
2019-02-28T04:58:45.727Z,21.14
2019-02-28T04:59:45.732Z,21.19
2019-02-28T05:00:45.738Z,21.16
2019-02-28T05:01:46.442Z,21.20
2019-02-28T05:02:45.747Z,21.20
2019-02-28T05:03:45.753Z,21.20
2019-02-28T05:04:45.756Z,21.21
2019-02-28T05:05:46.963Z,21.24
2019-02-28T05:06:45.768Z,21.20
2019-02-28T05:07:45.775Z,21.27
2019-02-28T05:08:45.780Z,21.19
2019-02-28T05:09:48.146Z,21.26
2019-02-28T05:10:45.802Z,21.26
2019-02-28T05:11:45.795Z,21.30
2019-02-28T05:12:45.799Z,21.21
2019-02-28T05:13:48.841Z,21.30
2019-02-28T05:14:45.810Z,21.29
2019-02-28T05:15:45.814Z,21.20
2019-02-28T05:16:47.531Z,21.27
2019-02-28T05:17:45.825Z,21.27
2019-02-28T05:18:45.830Z,21.23
2019-02-28T05:19:45.836Z,21.32
2019-02-28T05:20:46.104Z,21.34
2019-02-28T05:21:45.849Z,21.29
2019-02-28T05:22:45.853Z,21.27
2019-02-28T05:23:45.856Z,21.29
2019-02-28T05:24:45.866Z,21.30
2019-02-28T05:25:45.867Z,21.27
2019-02-28T05:26:45.870Z,21.29
2019-02-28T05:27:45.879Z,21.35
2019-02-28T05:28:45.884Z,21.20
2019-02-28T05:29:45.889Z,21.26
2019-02-28T05:30:45.892Z,21.21
2019-02-28T05:31:45.899Z,21.27
2019-02-28T05:32:45.901Z,21.19
2019-02-28T05:33:45.908Z,21.23
2019-02-28T05:34:47.423Z,21.24
2019-02-28T05:35:45.921Z,21.29
2019-02-28T05:36:45.924Z,21.29
2019-02-28T05:37:48.248Z,21.29
2019-02-28T05:38:45.934Z,21.35
2019-02-28T05:39:45.943Z,21.29
2019-02-28T05:40:45.948Z,21.26
2019-02-28T05:41:49.122Z,21.27
2019-02-28T05:42:45.956Z,21.34
2019-02-28T05:43:45.963Z,21.26
2019-02-28T05:44:45.974Z,21.27
2019-02-28T05:45:48.843Z,21.32
2019-02-28T05:46:45.974Z,21.35
2019-02-28T05:47:47.352Z,21.26
2019-02-28T05:48:45.985Z,21.35
2019-02-28T05:49:45.992Z,21.38
2019-02-28T05:50:46.890Z,21.29
2019-02-28T05:51:46.000Z,21.38
2019-02-28T05:52:46.009Z,21.38
2019-02-28T05:53:46.013Z,21.38
2019-02-28T05:54:47.247Z,21.42
2019-02-28T05:55:46.023Z,21.39
2019-02-28T05:56:46.030Z,21.42
2019-02-28T05:57:46.037Z,21.38
2019-02-28T05:58:46.039Z,21.44
2019-02-28T05:59:46.043Z,21.39
2019-02-28T06:00:46.048Z,21.35
2019-02-28T06:01:46.992Z,21.39
2019-02-28T06:02:46.057Z,21.41
2019-02-28T06:03:46.063Z,21.34
2019-02-28T06:04:46.067Z,21.45
2019-02-28T06:05:46.327Z,21.41
2019-02-28T06:06:46.080Z,21.42
2019-02-28T06:07:46.084Z,21.39
2019-02-28T06:08:46.090Z,21.36
2019-02-28T06:09:48.685Z,21.32
2019-02-28T06:10:46.101Z,21.30
2019-02-28T06:11:46.106Z,21.34
2019-02-28T06:12:46.110Z,21.36
2019-02-28T06:13:46.139Z,21.39
2019-02-28T06:14:46.123Z,21.46
2019-02-28T06:15:46.129Z,21.38
2019-02-28T06:16:46.909Z,21.45
2019-02-28T06:17:46.139Z,21.38
2019-02-28T06:18:46.143Z,21.44
2019-02-28T06:19:46.147Z,21.36
2019-02-28T06:20:50.983Z,21.34
2019-02-28T06:21:46.158Z,21.36
2019-02-28T06:22:46.167Z,21.30
2019-02-28T06:23:46.167Z,21.34
2019-02-28T06:24:46.173Z,21.46
2019-02-28T06:25:46.180Z,21.41
2019-02-28T06:26:46.187Z,21.42
2019-02-28T06:27:50.470Z,21.34
2019-02-28T06:28:46.196Z,21.44
2019-02-28T06:29:46.200Z,21.39
2019-02-28T06:30:46.204Z,21.38
2019-02-28T06:31:48.664Z,21.45
2019-02-28T06:32:46.216Z,21.45
2019-02-28T06:33:46.224Z,21.42
2019-02-28T06:34:46.246Z,21.39
2019-02-28T06:35:46.232Z,21.38
2019-02-28T06:36:46.235Z,21.35
2019-02-28T06:37:46.242Z,21.36
2019-02-28T06:38:46.248Z,21.35
2019-02-28T06:39:46.252Z,21.35
2019-02-28T06:40:46.260Z,21.35
2019-02-28T06:41:46.262Z,21.39
2019-02-28T06:42:47.498Z,21.39
2019-02-28T06:43:46.277Z,21.36
2019-02-28T06:44:46.277Z,21.36
2019-02-28T06:45:46.282Z,21.36
2019-02-28T06:46:46.289Z,21.36
2019-02-28T06:47:49.366Z,21.39
2019-02-28T06:48:46.299Z,21.36
2019-02-28T06:49:46.305Z,21.35
2019-02-28T06:50:46.312Z,21.34
2019-02-28T06:51:48.386Z,21.39
2019-02-28T06:52:46.320Z,21.39
2019-02-28T06:53:46.325Z,21.32
2019-02-28T06:54:46.330Z,21.27
2019-02-28T06:55:46.933Z,21.39
2019-02-28T06:56:46.342Z,21.32
2019-02-28T06:57:46.346Z,21.36
2019-02-28T06:58:46.350Z,21.38
2019-02-28T06:59:46.361Z,21.27
2019-02-28T07:00:47.354Z,21.29
2019-02-28T07:01:46.366Z,21.23
2019-02-28T07:02:46.373Z,21.26
2019-02-28T07:03:53.293Z,21.34
2019-02-28T07:04:49.518Z,21.24
2019-02-28T07:05:46.388Z,21.30
2019-02-28T07:06:46.397Z,21.29
2019-02-28T07:07:49.096Z,21.26
2019-02-28T07:08:46.405Z,21.29
2019-02-28T07:09:46.411Z,21.29
2019-02-28T07:10:48.400Z,21.24
2019-02-28T07:11:46.419Z,21.35
2019-02-28T07:12:46.423Z,21.35
2019-02-28T07:13:46.430Z,21.23
2019-02-28T07:14:49.308Z,21.26
2019-02-28T07:15:46.441Z,21.35
2019-02-28T07:16:46.457Z,21.24
2019-02-28T07:17:47.618Z,21.23
2019-02-28T07:18:46.460Z,21.41
2019-02-28T07:19:46.461Z,21.34
2019-02-28T07:20:47.216Z,21.23
2019-02-28T07:21:46.472Z,21.30
2019-02-28T07:22:46.499Z,21.34
2019-02-28T07:23:46.481Z,21.39
2019-02-28T07:24:46.486Z,21.38
2019-02-28T07:25:47.335Z,21.29
2019-02-28T07:26:48.211Z,21.39
2019-02-28T07:27:46.506Z,21.32
2019-02-28T07:28:46.507Z,21.34
2019-02-28T07:29:46.513Z,21.23
2019-02-28T07:30:46.520Z,21.32
2019-02-28T07:31:46.526Z,21.24
2019-02-28T07:32:46.528Z,21.29
2019-02-28T07:33:46.533Z,21.32
2019-02-28T07:34:46.560Z,21.26
2019-02-28T07:35:46.550Z,21.41
2019-02-28T07:36:46.555Z,21.39
2019-02-28T07:37:46.554Z,21.36
2019-02-28T07:38:46.565Z,21.29
2019-02-28T07:39:46.573Z,21.29
2019-02-28T07:40:49.425Z,21.32
2019-02-28T07:41:46.576Z,21.32
2019-02-28T07:42:46.582Z,21.35
2019-02-28T07:43:46.960Z,21.34
2019-02-28T07:44:46.592Z,21.38
2019-02-28T07:45:46.597Z,21.35
2019-02-28T07:46:46.601Z,21.35
2019-02-28T07:47:51.692Z,21.35
2019-02-28T07:48:46.611Z,21.35
2019-02-28T07:49:46.620Z,21.24
2019-02-28T07:50:47.686Z,21.32
2019-02-28T07:51:46.629Z,21.45
2019-02-28T07:52:46.635Z,21.39
2019-02-28T07:53:46.640Z,21.29
2019-02-28T07:54:47.543Z,21.24
2019-02-28T07:55:46.650Z,21.27
2019-02-28T07:56:46.654Z,21.30
2019-02-28T07:57:50.963Z,21.39
2019-02-28T07:58:46.667Z,21.32
2019-02-28T07:59:46.671Z,21.24
2019-02-28T08:00:48.426Z,21.26
2019-02-28T08:01:46.682Z,21.21
2019-02-28T08:02:46.686Z,21.29
2019-02-28T08:03:46.723Z,21.30
2019-02-28T08:04:46.696Z,21.27
2019-02-28T08:05:46.701Z,21.30
2019-02-28T08:06:46.707Z,21.35
2019-02-28T08:07:52.062Z,21.39
2019-02-28T08:08:46.717Z,21.35
2019-02-28T08:09:46.726Z,21.38
2019-02-28T08:10:47.980Z,21.39
2019-02-28T08:11:46.734Z,21.23
2019-02-28T08:12:46.737Z,21.34
2019-02-28T08:13:46.744Z,21.23
2019-02-28T08:14:47.190Z,21.26
2019-02-28T08:15:46.763Z,21.23
2019-02-28T08:16:46.760Z,21.23
2019-02-28T08:17:46.764Z,21.36
2019-02-28T08:18:46.771Z,21.24
2019-02-28T08:19:46.777Z,21.35
2019-02-28T08:20:46.778Z,21.32
2019-02-28T08:21:50.235Z,21.24
2019-02-28T08:22:46.793Z,21.23
2019-02-28T08:23:46.862Z,21.21
2019-02-28T08:24:46.807Z,21.27
2019-02-28T08:25:46.806Z,21.23
2019-02-28T08:26:46.813Z,21.36
2019-02-28T08:27:46.822Z,21.23
2019-02-28T08:28:46.821Z,21.24
2019-02-28T08:29:46.826Z,21.26
2019-02-28T08:30:47.425Z,21.39
2019-02-28T08:31:46.837Z,21.29
2019-02-28T08:32:47.234Z,21.26
2019-02-28T08:33:48.161Z,21.29
2019-02-28T08:34:46.983Z,21.30
2019-02-28T08:35:46.857Z,21.24
2019-02-28T08:36:47.529Z,21.39
2019-02-28T08:37:46.876Z,21.32
2019-02-28T08:38:46.875Z,21.35
2019-02-28T08:39:46.881Z,21.38
2019-02-28T08:40:50.506Z,21.30
2019-02-28T08:41:46.888Z,21.34
2019-02-28T08:42:46.944Z,21.34
2019-02-28T08:43:47.886Z,21.39
2019-02-28T08:44:46.905Z,21.26
2019-02-28T08:45:46.916Z,21.41
2019-02-28T08:46:47.302Z,21.27
2019-02-28T08:47:46.920Z,21.38
2019-02-28T08:48:46.927Z,21.39
2019-02-28T08:49:46.931Z,21.42
2019-02-28T08:50:46.937Z,21.34
2019-02-28T08:51:46.944Z,21.36
2019-02-28T08:52:48.366Z,21.44
2019-02-28T08:53:50.777Z,21.36
2019-02-28T08:54:46.956Z,21.39
2019-02-28T08:55:46.964Z,21.39
2019-02-28T08:56:49.829Z,21.39
2019-02-28T08:57:54.485Z,21.38
2019-02-28T08:58:46.978Z,21.34
2019-02-28T08:59:46.983Z,21.42
2019-02-28T09:00:46.988Z,21.42
2019-02-28T09:01:46.993Z,21.42
2019-02-28T09:02:52.273Z,21.36
2019-02-28T09:03:47.005Z,21.44
2019-02-28T09:04:47.832Z,21.29
2019-02-28T09:05:47.015Z,21.39
2019-02-28T09:06:47.022Z,21.38
2019-02-28T09:07:50.772Z,21.42
2019-02-28T09:08:47.030Z,21.34
2019-02-28T09:09:47.035Z,21.36
2019-02-28T09:10:47.837Z,21.38
2019-02-28T09:11:47.048Z,21.36
2019-02-28T09:12:47.050Z,21.35
2019-02-28T09:13:47.057Z,21.36
2019-02-28T09:14:47.062Z,21.36
2019-02-28T09:15:47.067Z,21.46
2019-02-28T09:16:47.091Z,21.36
2019-02-28T09:17:47.087Z,21.38
2019-02-28T09:18:47.082Z,21.35
2019-02-28T09:19:47.088Z,21.35
2019-02-28T09:20:47.092Z,21.39
2019-02-28T09:21:49.441Z,21.39
2019-02-28T09:22:47.103Z,21.45
2019-02-28T09:23:47.107Z,21.44
2019-02-28T09:24:47.454Z,21.36
2019-02-28T09:25:47.119Z,21.34
2019-02-28T09:26:47.123Z,21.34
2019-02-28T09:27:47.130Z,21.39
2019-02-28T09:28:47.508Z,21.36
2019-02-28T09:29:47.142Z,21.39
2019-02-28T09:30:47.144Z,21.38
2019-02-28T09:31:47.150Z,21.39
2019-02-28T09:32:48.170Z,21.35
2019-02-28T09:33:47.159Z,21.38
2019-02-28T09:34:47.166Z,21.44
2019-02-28T09:35:47.172Z,21.34
2019-02-28T09:36:47.176Z,21.36
2019-02-28T09:37:47.181Z,21.38
2019-02-28T09:38:47.185Z,21.35
2019-02-28T09:39:47.194Z,21.41
2019-02-28T09:40:47.196Z,21.41
2019-02-28T09:41:47.203Z,21.42
2019-02-28T09:42:47.972Z,21.39
2019-02-28T09:43:47.272Z,21.38
2019-02-28T09:44:47.217Z,21.32
2019-02-28T09:45:47.222Z,21.42
2019-02-28T09:46:47.520Z,21.38
2019-02-28T09:47:47.234Z,21.41
2019-02-28T09:48:47.239Z,21.41
2019-02-28T09:49:47.986Z,21.44
2019-02-28T09:50:47.250Z,21.42
2019-02-28T09:51:47.255Z,21.41
2019-02-28T09:52:47.260Z,21.41
2019-02-28T09:53:50.284Z,21.34
2019-02-28T09:54:47.271Z,21.39
2019-02-28T09:55:47.278Z,21.32
2019-02-28T09:56:47.280Z,21.27
2019-02-28T09:57:47.286Z,21.36
2019-02-28T09:58:47.290Z,21.30
2019-02-28T09:59:47.298Z,21.29
2019-02-28T10:00:50.208Z,21.29
2019-02-28T10:01:47.305Z,21.35
2019-02-28T10:02:47.313Z,21.27
2019-02-28T10:03:47.317Z,21.38
2019-02-28T10:04:47.322Z,21.34
2019-02-28T10:05:47.327Z,21.36
2019-02-28T10:06:48.523Z,21.34
2019-02-28T10:07:47.339Z,21.38
2019-02-28T10:08:47.343Z,21.27
2019-02-28T10:09:49.272Z,21.35
2019-02-28T10:10:47.353Z,21.30
2019-02-28T10:11:47.359Z,21.35
2019-02-28T10:12:47.373Z,21.32
2019-02-28T10:13:49.527Z,21.35
2019-02-28T10:14:47.374Z,21.36
2019-02-28T10:15:47.380Z,21.39
2019-02-28T10:16:49.570Z,21.34
2019-02-28T10:17:47.393Z,21.23
2019-02-28T10:18:47.394Z,21.20
2019-02-28T10:19:49.225Z,21.35
2019-02-28T10:20:47.405Z,21.34
2019-02-28T10:21:51.904Z,21.38
2019-02-28T10:22:48.076Z,21.27
2019-02-28T10:23:47.424Z,21.34
2019-02-28T10:24:47.426Z,21.41
2019-02-28T10:25:47.432Z,21.35
2019-02-28T10:26:51.039Z,21.35
2019-02-28T10:27:47.444Z,21.29
2019-02-28T10:28:47.447Z,21.42
2019-02-28T10:29:47.453Z,21.27
2019-02-28T10:30:50.167Z,21.38
2019-02-28T10:31:47.467Z,21.38
2019-02-28T10:32:47.477Z,21.42
2019-02-28T10:33:49.433Z,21.35
2019-02-28T10:34:47.479Z,21.39
2019-02-28T10:35:47.485Z,21.35
2019-02-28T10:36:47.767Z,21.45
2019-02-28T10:37:47.494Z,21.44
2019-02-28T10:38:47.500Z,21.36
2019-02-28T10:39:47.505Z,21.38
2019-02-28T10:40:49.313Z,21.38
2019-02-28T10:41:47.516Z,21.32
2019-02-28T10:42:49.441Z,21.36
2019-02-28T10:43:52.053Z,21.38
2019-02-28T10:44:47.532Z,21.38
2019-02-28T10:45:47.538Z,21.44
2019-02-28T10:46:50.339Z,21.32
2019-02-28T10:47:47.601Z,21.36
2019-02-28T10:48:50.950Z,21.44
2019-02-28T10:49:47.577Z,21.35
2019-02-28T10:50:47.563Z,21.41
2019-02-28T10:51:49.709Z,21.42
2019-02-28T10:52:47.573Z,21.45
2019-02-28T10:53:47.583Z,21.41
2019-02-28T10:54:48.652Z,21.45
2019-02-28T10:55:47.590Z,21.36
2019-02-28T10:56:47.594Z,21.39
2019-02-28T10:57:47.599Z,21.39
2019-02-28T10:58:50.153Z,21.36
2019-02-28T10:59:47.610Z,21.42
2019-02-28T11:00:47.614Z,21.32
2019-02-28T11:01:47.619Z,21.44
2019-02-28T11:02:50.405Z,21.44
2019-02-28T11:03:47.632Z,21.35
2019-02-28T11:04:47.635Z,21.39
2019-02-28T11:05:53.424Z,21.38
2019-02-28T11:06:47.645Z,21.27
2019-02-28T11:07:47.660Z,21.36
2019-02-28T11:08:48.251Z,21.36
2019-02-28T11:09:47.663Z,21.38
2019-02-28T11:10:47.674Z,21.27
2019-02-28T11:11:47.672Z,21.26
2019-02-28T11:12:47.676Z,21.41
2019-02-28T11:13:47.682Z,21.29
2019-02-28T11:14:47.752Z,21.34
2019-02-28T11:15:48.421Z,21.29
2019-02-28T11:16:47.699Z,21.38
2019-02-28T11:17:47.702Z,21.39
2019-02-28T11:18:47.708Z,21.42
2019-02-28T11:19:48.540Z,21.26
2019-02-28T11:20:47.718Z,21.35
2019-02-28T11:21:47.723Z,21.42
2019-02-28T11:22:47.729Z,21.39
2019-02-28T11:23:50.090Z,21.35
2019-02-28T11:24:47.739Z,21.36
2019-02-28T11:25:47.744Z,21.44
2019-02-28T11:26:47.750Z,21.41
2019-02-28T11:27:47.758Z,21.42
2019-02-28T11:28:47.761Z,21.44
2019-02-28T11:29:47.766Z,21.45
2019-02-28T11:30:47.779Z,21.27
2019-02-28T11:31:50.606Z,21.42
2019-02-28T11:32:47.782Z,21.32
2019-02-28T11:33:47.899Z,21.38
2019-02-28T11:34:48.708Z,21.42
2019-02-28T11:35:47.864Z,21.38
2019-02-28T11:36:47.802Z,21.41
2019-02-28T11:37:47.807Z,21.39
2019-02-28T11:38:47.811Z,21.36
2019-02-28T11:39:47.817Z,21.42
2019-02-28T11:40:56.731Z,21.44
2019-02-28T11:41:49.291Z,21.27
2019-02-28T11:42:47.834Z,21.34
2019-02-28T11:43:47.841Z,20.99
2019-02-28T11:44:47.845Z,20.99
2019-02-28T11:45:47.852Z,20.89
2019-02-28T11:46:47.854Z,21.01
2019-02-28T11:47:47.859Z,20.96
2019-02-28T11:48:47.865Z,21.11
2019-02-28T11:49:47.870Z,21.06
2019-02-28T11:50:47.875Z,21.13
2019-02-28T11:51:49.364Z,21.19
2019-02-28T11:52:47.884Z,21.14
2019-02-28T11:53:47.890Z,21.21
2019-02-28T11:54:47.896Z,21.11
2019-02-28T11:55:47.901Z,21.24
2019-02-28T11:56:47.907Z,21.30
2019-02-28T11:57:47.911Z,21.27
2019-02-28T11:58:51.254Z,21.30
2019-02-28T11:59:47.922Z,21.24
2019-02-28T12:00:47.926Z,21.21
2019-02-28T12:01:48.473Z,21.32
2019-02-28T12:02:53.259Z,21.29
2019-02-28T12:03:47.946Z,21.23
2019-02-28T12:04:47.948Z,21.30
2019-02-28T12:05:50.667Z,21.23
2019-02-28T12:06:47.961Z,21.27
2019-02-28T12:07:47.968Z,21.32
2019-02-28T12:08:47.968Z,21.29
2019-02-28T12:09:47.972Z,21.26
2019-02-28T12:10:47.981Z,21.24
2019-02-28T12:11:47.984Z,21.19
2019-02-28T12:12:47.988Z,21.21
2019-02-28T12:13:47.995Z,21.30
2019-02-28T12:14:48.000Z,21.21
2019-02-28T12:15:48.004Z,21.24
2019-02-28T12:16:52.720Z,21.29
2019-02-28T12:17:48.019Z,21.30
2019-02-28T12:18:48.019Z,21.29
2019-02-28T12:19:50.673Z,21.26
2019-02-28T12:20:48.030Z,21.24
2019-02-28T12:21:48.075Z,21.23
2019-02-28T12:22:49.345Z,21.23
2019-02-28T12:23:48.050Z,21.24
2019-02-28T12:24:48.050Z,21.29
2019-02-28T12:25:48.059Z,21.23
2019-02-28T12:26:49.401Z,21.26
2019-02-28T12:27:48.067Z,21.24
2019-02-28T12:28:48.072Z,21.39
2019-02-28T12:29:49.257Z,21.36
2019-02-28T12:30:48.083Z,21.23
2019-02-28T12:31:48.086Z,21.26
2019-02-28T12:32:48.092Z,21.24
2019-02-28T12:33:48.097Z,21.42
2019-02-28T12:34:48.105Z,21.36
2019-02-28T12:35:48.108Z,21.34
2019-02-28T12:36:49.432Z,21.32
2019-02-28T12:37:48.120Z,21.32
2019-02-28T12:38:48.123Z,21.36
2019-02-28T12:39:48.129Z,21.38
2019-02-28T12:40:49.510Z,21.39
2019-02-28T12:41:48.139Z,21.36
2019-02-28T12:42:48.146Z,21.35
2019-02-28T12:43:48.151Z,21.44
2019-02-28T12:44:49.016Z,21.39
2019-02-28T12:45:48.159Z,21.36
2019-02-28T12:46:48.165Z,21.39
2019-02-28T12:47:48.372Z,21.45
2019-02-28T12:48:48.436Z,21.45
2019-02-28T12:49:48.179Z,21.46
2019-02-28T12:50:48.186Z,21.44
2019-02-28T12:51:48.191Z,21.44
2019-02-28T12:52:49.907Z,21.46